PWSweather.com
Personal Weather Stations
Station Observations
KC4YGB
Carter Ridge, Rock Cave, WV 26218

Carter RidgeRock Cave, WV 26218

Lat: 38.842212, Lon: -80.272288

Elevation: 1857

Station Type: Davis Vantage Vue

https://www.facebook.com/WVWEATHERCENTRAL

Latest ConditionsUpdated 5:41:30 AM EST Wednesday, Feb 10, 2016
Currently Today's Max Today's Min Today's Average
Temperature 17.1°F-8.3°C 19.1°F-7.2°C 17.1°F-8.3°C 18.3°F-7.6°C
Dew Point 15.2°F-9.3°C 17.3°F-8.2°C 14.9°F-9.5°C 16.5°F-8.6°C
Winds 5.0 mph NW8.0 kmh NW 13.0 mph WNW20.9 kmh WNW - 5.2 mph 8.4 kmh
Wind Gusts 10.0 mph16.1 kmh 17.0 mph27.4 kmh - -
Humidity 92% 93% 91% 92%
Pressure 29.78 in1008.5 mb 29.78 in1008.5 mb 29.74 in1007.1 mb -
Hour Temp Dew Point Humidity Winds Wind Gusts Pressure Precip Precip Rate Daily Precip Total
05:41 AM 17.1°F-8.3°C 15.2°F-9.3°C 92% 5.0 mph NW8.0 kmh NW 10.0 mph16.1 kmh 29.78 in1008.5 mb 0.00 in0.0 mm 0.00 in0.0 mm 0.00 in0.0 mm
05:36 AM 17.1°F-8.3°C 15.2°F-9.3°C 92% 8.0 mph NW12.9 kmh NW 10.0 mph16.1 kmh 29.78 in1008.5 mb 0.00 in0.0 mm 0.00 in0.0 mm 0.00 in0.0 mm
05:31 AM 17.1°F-8.3°C 14.9°F-9.5°C 91% 3.0 mph WSW4.8 kmh WSW 6.0 mph9.7 kmh 29.78 in1008.5 mb 0.00 in0.0 mm 0.00 in0.0 mm 0.00 in0.0 mm
05:26 AM 17.2°F-8.2°C 15.3°F-9.3°C 92% 5.0 mph WSW8.0 kmh WSW 11.0 mph17.7 kmh 29.77 in1008.1 mb 0.00 in0.0 mm 0.00 in0.0 mm 0.00 in0.0 mm
05:21 AM 17.2°F-8.2°C 15.3°F-9.3°C 92% 7.0 mph WNW11.3 kmh WNW 11.0 mph17.7 kmh 29.77 in1008.1 mb 0.00 in0.0 mm 0.00 in0.0 mm 0.00 in0.0 mm
05:16 AM 17.3°F-8.2°C 15.4°F-9.2°C 92% 5.0 mph W8.0 kmh W 10.0 mph16.1 kmh 29.77 in1008.1 mb 0.00 in0.0 mm 0.00 in0.0 mm 0.00 in0.0 mm
05:11 AM 17.3°F-8.2°C 15.4°F-9.2°C 92% 2.0 mph WNW3.2 kmh WNW 9.0 mph14.5 kmh 29.77 in1008.1 mb 0.00 in0.0 mm 0.00 in0.0 mm 0.00 in0.0 mm
05:06 AM 17.3°F-8.2°C 15.4°F-9.2°C 92% 8.0 mph W12.9 kmh W 10.0 mph16.1 kmh 29.77 in1008.1 mb 0.00 in0.0 mm 0.00 in0.0 mm 0.00 in0.0 mm
05:01 AM 17.4°F-8.1°C 15.5°F-9.2°C 92% 8.0 mph WSW12.9 kmh WSW 9.0 mph14.5 kmh 29.77 in1008.1 mb 0.00 in0.0 mm 0.00 in0.0 mm 0.00 in0.0 mm
04:56 AM 17.4°F-8.1°C 15.5°F-9.2°C 92% 3.0 mph W4.8 kmh W 8.0 mph12.9 kmh 29.77 in1008.1 mb 0.00 in0.0 mm 0.00 in0.0 mm 0.00 in0.0 mm
04:51 AM 17.4°F-8.1°C 15.5°F-9.2°C 92% 7.0 mph W11.3 kmh W 7.0 mph11.3 kmh 29.77 in1008.1 mb 0.00 in0.0 mm 0.00 in0.0 mm 0.00 in0.0 mm
04:46 AM 17.5°F-8.1°C 15.6°F-9.1°C 92% 6.0 mph W9.7 kmh W 10.0 mph16.1 kmh 29.77 in1008.1 mb 0.00 in0.0 mm 0.00 in0.0 mm 0.00 in0.0 mm
04:41 AM 17.5°F-8.1°C 15.6°F-9.1°C 92% 2.0 mph NW3.2 kmh NW 10.0 mph16.1 kmh 29.77 in1008.1 mb 0.00 in0.0 mm 0.00 in0.0 mm 0.00 in0.0 mm
04:36 AM 17.5°F-8.1°C 15.6°F-9.1°C 92% 3.0 mph W4.8 kmh W 11.0 mph17.7 kmh 29.77 in1008.1 mb 0.00 in0.0 mm 0.00 in0.0 mm 0.00 in0.0 mm
04:31 AM 17.6°F-8.0°C 15.7°F-9.1°C 92% 5.0 mph W8.0 kmh W 6.0 mph9.7 kmh 29.76 in1007.8 mb 0.00 in0.0 mm 0.00 in0.0 mm 0.00 in0.0 mm
04:26 AM 17.7°F-7.9°C 15.8°F-9.0°C 92% 6.0 mph WNW9.7 kmh WNW 10.0 mph16.1 kmh 29.76 in1007.8 mb 0.00 in0.0 mm 0.00 in0.0 mm 0.00 in0.0 mm
04:21 AM 17.7°F-7.9°C 15.8°F-9.0°C 92% 7.0 mph WSW11.3 kmh WSW 7.0 mph11.3 kmh 29.76 in1007.8 mb 0.00 in0.0 mm 0.00 in0.0 mm 0.00 in0.0 mm
04:16 AM 17.8°F-7.9°C 15.9°F-8.9°C 92% 5.0 mph WSW8.0 kmh WSW 11.0 mph17.7 kmh 29.76 in1007.8 mb 0.00 in0.0 mm 0.00 in0.0 mm 0.00 in0.0 mm
04:11 AM 17.8°F-7.9°C 15.9°F-8.9°C 92% 4.0 mph W6.4 kmh W 8.0 mph12.9 kmh 29.76 in1007.8 mb 0.00 in0.0 mm 0.00 in0.0 mm 0.00 in0.0 mm
04:06 AM 17.9°F-7.8°C 16.0°F-8.9°C 92% 7.0 mph W11.3 kmh W 13.0 mph20.9 kmh 29.76 in1007.8 mb 0.00 in0.0 mm 0.00 in0.0 mm 0.00 in0.0 mm
04:01 AM 17.9°F-7.8°C 16.0°F-8.9°C 92% 4.0 mph WSW6.4 kmh WSW 6.0 mph9.7 kmh 29.76 in1007.8 mb 0.00 in0.0 mm 0.00 in0.0 mm 0.00 in0.0 mm
03:56 AM 18.0°F-7.8°C 16.1°F-8.8°C 92% 6.0 mph WSW9.7 kmh WSW 10.0 mph16.1 kmh 29.76 in1007.8 mb 0.00 in0.0 mm 0.00 in0.0 mm 0.00 in0.0 mm
03:51 AM 18.1°F-7.7°C 16.4°F-8.7°C 93% 6.0 mph WNW9.7 kmh WNW 7.0 mph11.3 kmh 29.75 in1007.5 mb 0.00 in0.0 mm 0.00 in0.0 mm 0.00 in0.0 mm
03:46 AM 18.1°F-7.7°C 16.4°F-8.7°C 93% 4.0 mph WSW6.4 kmh WSW 10.0 mph16.1 kmh 29.76 in1007.8 mb 0.00 in0.0 mm 0.00 in0.0 mm 0.00 in0.0 mm
03:41 AM 18.1°F-7.7°C 16.4°F-8.7°C 93% 10.0 mph WNW16.1 kmh WNW 10.0 mph16.1 kmh 29.75 in1007.5 mb 0.00 in0.0 mm 0.00 in0.0 mm 0.00 in0.0 mm
03:36 AM 18.2°F-7.7°C 16.5°F-8.6°C 93% 6.0 mph WNW9.7 kmh WNW 12.0 mph19.3 kmh 29.75 in1007.5 mb 0.00 in0.0 mm 0.00 in0.0 mm 0.00 in0.0 mm
03:32 AM 18.2°F-7.7°C 16.5°F-8.6°C 93% 7.0 mph WSW11.3 kmh WSW 9.0 mph14.5 kmh 29.76 in1007.8 mb 0.00 in0.0 mm 0.00 in0.0 mm 0.00 in0.0 mm
03:26 AM 18.2°F-7.7°C 16.5°F-8.6°C 93% 4.0 mph WNW6.4 kmh WNW 13.0 mph20.9 kmh 29.76 in1007.8 mb 0.00 in0.0 mm 0.00 in0.0 mm 0.00 in0.0 mm
03:21 AM 18.2°F-7.7°C 16.5°F-8.6°C 93% 13.0 mph WNW20.9 kmh WNW 13.0 mph20.9 kmh 29.75 in1007.5 mb 0.00 in0.0 mm 0.00 in0.0 mm 0.00 in0.0 mm
03:16 AM 18.2°F-7.7°C 16.5°F-8.6°C 93% 7.0 mph WSW11.3 kmh WSW 9.0 mph14.5 kmh 29.75 in1007.5 mb 0.00 in0.0 mm 0.00 in0.0 mm 0.00 in0.0 mm
03:11 AM 18.2°F-7.7°C 16.5°F-8.6°C 93% 5.0 mph WNW8.0 kmh WNW 7.0 mph11.3 kmh 29.76 in1007.8 mb 0.00 in0.0 mm 0.00 in0.0 mm 0.00 in0.0 mm
03:06 AM 18.3°F-7.6°C 16.6°F-8.6°C 93% 7.0 mph WNW11.3 kmh WNW 10.0 mph16.1 kmh 29.76 in1007.8 mb 0.00 in0.0 mm 0.00 in0.0 mm 0.00 in0.0 mm
03:01 AM 18.3°F-7.6°C 16.6°F-8.6°C 93% 6.0 mph WSW9.7 kmh WSW 10.0 mph16.1 kmh 29.76 in1007.8 mb 0.00 in0.0 mm 0.00 in0.0 mm 0.00 in0.0 mm
02:56 AM 18.3°F-7.6°C 16.6°F-8.6°C 93% 4.0 mph W6.4 kmh W 10.0 mph16.1 kmh 29.76 in1007.8 mb 0.00 in0.0 mm 0.00 in0.0 mm 0.00 in0.0 mm
02:51 AM 18.3°F-7.6°C 16.6°F-8.6°C 93% 7.0 mph NW11.3 kmh NW 7.0 mph11.3 kmh 29.76 in1007.8 mb 0.00 in0.0 mm 0.00 in0.0 mm 0.00 in0.0 mm
02:46 AM 18.3°F-7.6°C 16.6°F-8.6°C 93% 6.0 mph NW9.7 kmh NW 17.0 mph27.4 kmh 29.76 in1007.8 mb 0.00 in0.0 mm 0.00 in0.0 mm 0.00 in0.0 mm
02:41 AM 18.4°F-7.6°C 16.7°F-8.5°C 93% 5.0 mph W8.0 kmh W 11.0 mph17.7 kmh 29.76 in1007.8 mb 0.00 in0.0 mm 0.00 in0.0 mm 0.00 in0.0 mm
02:36 AM 18.4°F-7.6°C 16.7°F-8.5°C 93% 9.0 mph WNW14.5 kmh WNW 13.0 mph20.9 kmh 29.76 in1007.8 mb 0.00 in0.0 mm 0.00 in0.0 mm 0.00 in0.0 mm
02:31 AM 18.5°F-7.5°C 16.8°F-8.4°C 93% 8.0 mph W12.9 kmh W 12.0 mph19.3 kmh 29.76 in1007.8 mb 0.00 in0.0 mm 0.00 in0.0 mm 0.00 in0.0 mm
02:26 AM 18.5°F-7.5°C 16.8°F-8.4°C 93% 6.0 mph WNW9.7 kmh WNW 12.0 mph19.3 kmh 29.75 in1007.5 mb 0.00 in0.0 mm 0.00 in0.0 mm 0.00 in0.0 mm
02:21 AM 18.6°F-7.4°C 16.9°F-8.4°C 93% 5.0 mph WNW8.0 kmh WNW 10.0 mph16.1 kmh 29.75 in1007.5 mb 0.00 in0.0 mm 0.00 in0.0 mm 0.00 in0.0 mm
02:16 AM 18.6°F-7.4°C 16.9°F-8.4°C 93% 1.0 mph SW1.6 kmh SW 6.0 mph9.7 kmh 29.75 in1007.5 mb 0.00 in0.0 mm 0.00 in0.0 mm 0.00 in0.0 mm
02:11 AM 18.7°F-7.4°C 17.0°F-8.3°C 93% 4.0 mph WSW6.4 kmh WSW 5.0 mph8.0 kmh 29.75 in1007.5 mb 0.00 in0.0 mm 0.00 in0.0 mm 0.00 in0.0 mm
02:06 AM 18.7°F-7.4°C 17.0°F-8.3°C 93% 3.0 mph WSW4.8 kmh WSW 10.0 mph16.1 kmh 29.75 in1007.5 mb 0.00 in0.0 mm 0.00 in0.0 mm 0.00 in0.0 mm
02:01 AM 18.7°F-7.4°C 17.0°F-8.3°C 93% 3.0 mph W4.8 kmh W 5.0 mph8.0 kmh 29.75 in1007.5 mb 0.00 in0.0 mm 0.00 in0.0 mm 0.00 in0.0 mm
01:56 AM 18.7°F-7.4°C 17.0°F-8.3°C 93% 4.0 mph SW6.4 kmh SW 5.0 mph8.0 kmh 29.75 in1007.5 mb 0.00 in0.0 mm 0.00 in0.0 mm 0.00 in0.0 mm
01:51 AM 18.8°F-7.3°C 17.1°F-8.3°C 93% 5.0 mph W8.0 kmh W 5.0 mph8.0 kmh 29.75 in1007.5 mb 0.00 in0.0 mm 0.00 in0.0 mm 0.00 in0.0 mm
01:46 AM 18.8°F-7.3°C 17.1°F-8.3°C 93% 4.0 mph WNW6.4 kmh WNW 6.0 mph9.7 kmh 29.75 in1007.5 mb 0.00 in0.0 mm 0.00 in0.0 mm 0.00 in0.0 mm
01:41 AM 18.8°F-7.3°C 17.1°F-8.3°C 93% 5.0 mph WNW8.0 kmh WNW 5.0 mph8.0 kmh 29.75 in1007.5 mb 0.00 in0.0 mm 0.00 in0.0 mm 0.00 in0.0 mm
01:36 AM 18.9°F-7.3°C 17.2°F-8.2°C 93% 10.0 mph SW16.1 kmh SW 10.0 mph16.1 kmh 29.75 in1007.5 mb 0.00 in0.0 mm 0.00 in0.0 mm 0.00 in0.0 mm
01:31 AM 18.9°F-7.3°C 17.2°F-8.2°C 93% 5.0 mph W8.0 kmh W 5.0 mph8.0 kmh 29.75 in1007.5 mb 0.00 in0.0 mm 0.00 in0.0 mm 0.00 in0.0 mm
01:26 AM 18.9°F-7.3°C 17.2°F-8.2°C 93% 3.0 mph WSW4.8 kmh WSW 5.0 mph8.0 kmh 29.75 in1007.5 mb 0.00 in0.0 mm 0.00 in0.0 mm 0.00 in0.0 mm
01:21 AM 18.9°F-7.3°C 17.2°F-8.2°C 93% 2.0 mph WSW3.2 kmh WSW 5.0 mph8.0 kmh 29.75 in1007.5 mb 0.00 in0.0 mm 0.00 in0.0 mm 0.00 in0.0 mm
01:16 AM 18.9°F-7.3°C 17.2°F-8.2°C 93% 3.0 mph WSW4.8 kmh WSW 8.0 mph12.9 kmh 29.75 in1007.5 mb 0.00 in0.0 mm 0.00 in0.0 mm 0.00 in0.0 mm
01:11 AM 18.9°F-7.3°C 17.2°F-8.2°C 93% 8.0 mph W12.9 kmh W 8.0 mph12.9 kmh 29.75 in1007.5 mb 0.00 in0.0 mm 0.00 in0.0 mm 0.00 in0.0 mm
01:06 AM 19.0°F-7.2°C 17.3°F-8.2°C 93% 5.0 mph SW8.0 kmh SW 5.0 mph8.0 kmh 29.75 in1007.5 mb 0.00 in0.0 mm 0.00 in0.0 mm 0.00 in0.0 mm
01:01 AM 19.0°F-7.2°C 17.1°F-8.3°C 92% 4.0 mph W6.4 kmh W 4.0 mph6.4 kmh 29.75 in1007.5 mb 0.00 in0.0 mm 0.00 in0.0 mm 0.00 in0.0 mm
12:56 AM 19.0°F-7.2°C 17.1°F-8.3°C 92% 2.0 mph W3.2 kmh W 9.0 mph14.5 kmh 29.75 in1007.5 mb 0.00 in0.0 mm 0.00 in0.0 mm 0.00 in0.0 mm
12:51 AM 19.0°F-7.2°C 17.1°F-8.3°C 92% 6.0 mph W9.7 kmh W 6.0 mph9.7 kmh 29.75 in1007.5 mb 0.00 in0.0 mm 0.00 in0.0 mm 0.00 in0.0 mm
12:46 AM 19.0°F-7.2°C 17.1°F-8.3°C 92% 4.0 mph WNW6.4 kmh WNW 7.0 mph11.3 kmh 29.75 in1007.5 mb 0.00 in0.0 mm 0.00 in0.0 mm 0.00 in0.0 mm
12:41 AM 19.0°F-7.2°C 17.1°F-8.3°C 92% 2.0 mph W3.2 kmh W 5.0 mph8.0 kmh 29.75 in1007.5 mb 0.00 in0.0 mm 0.00 in0.0 mm 0.00 in0.0 mm
12:36 AM 19.0°F-7.2°C 17.1°F-8.3°C 92% 6.0 mph W9.7 kmh W 6.0 mph9.7 kmh 29.74 in1007.1 mb 0.00 in0.0 mm 0.00 in0.0 mm 0.00 in0.0 mm
12:32 AM 19.1°F-7.2°C 17.2°F-8.2°C 92% 6.0 mph WNW9.7 kmh WNW 6.0 mph9.7 kmh 29.75 in1007.5 mb 0.00 in0.0 mm 0.00 in0.0 mm 0.00 in0.0 mm
12:26 AM 19.1°F-7.2°C 17.2°F-8.2°C 92% 2.0 mph WSW3.2 kmh WSW 9.0 mph14.5 kmh 29.75 in1007.5 mb 0.00 in0.0 mm 0.00 in0.0 mm 0.00 in0.0 mm
12:21 AM 19.1°F-7.2°C 17.2°F-8.2°C 92% 9.0 mph WSW14.5 kmh WSW 9.0 mph14.5 kmh 29.75 in1007.5 mb 0.00 in0.0 mm 0.00 in0.0 mm 0.00 in0.0 mm
12:16 AM 19.0°F-7.2°C 17.1°F-8.3°C 92% 5.0 mph W8.0 kmh W 5.0 mph8.0 kmh 29.75 in1007.5 mb 0.00 in0.0 mm 0.00 in0.0 mm 0.00 in0.0 mm
12:11 AM 19.0°F-7.2°C 17.1°F-8.3°C 92% 2.0 mph W3.2 kmh W 4.0 mph6.4 kmh 29.75 in1007.5 mb 0.00 in0.0 mm 0.00 in0.0 mm 0.00 in0.0 mm
12:07 AM 19.0°F-7.2°C 17.1°F-8.3°C 92% 1.0 mph NW1.6 kmh NW 6.0 mph9.7 kmh 29.75 in1007.5 mb 0.00 in0.0 mm 0.00 in0.0 mm 0.00 in0.0 mm
12:01 AM 19.0°F-7.2°C 17.1°F-8.3°C 92% 2.0 mph SW3.2 kmh SW 5.0 mph8.0 kmh 29.75 in1007.5 mb 0.00 in0.0 mm 0.00 in0.0 mm 0.00 in0.0 mm